Terminal Aerodrome Forecast
Issued by NWS Louisville, KY

Home | Current Version | Previous Version | Text Only | Print | Product List | Glossary On
Versions: 1 2 3 4 5 6 7 8 9 10 11 12 13 14 15 16
000
FTUS43 KLMK 201603 AAB
TAFSDF
TAF AMD
KSDF 201603Z 2016/2118 08010KT P6SM BKN040
     FM201800 17007KT P6SM BKN035
     FM202100 19008KT P6SM VCSH BKN035
     FM210300 27005KT 4SM -SHRA BKN015
     FM210800 32004KT 4SM BR OVC009
     FM211200 35006KT 4SM BR OVC007=

USA.gov is the U.S. government's official web portal to all federal, state and local government web resources and services.